createdAt,value
2023-02-03T03:43:58.939Z,100893.75
2023-02-03T03:47:14.343Z,100890.78
2023-02-03T03:50:21.973Z,100889.56
2023-02-03T03:53:28.959Z,100892.72
2023-02-03T03:56:41.628Z,100899.22
2023-02-03T03:59:48.686Z,100885.03
2023-02-03T04:02:52.407Z,100885.63
2023-02-03T04:05:54.747Z,100881.78
2023-02-03T04:08:57.189Z,100886.56
2023-02-03T04:12:02.606Z,100886.19
2023-02-03T04:15:04.990Z,100870.75
2023-02-03T04:18:11.893Z,100873.00
2023-02-03T04:21:13.991Z,100873.47
2023-02-03T04:24:16.596Z,100880.53
2023-02-03T04:27:18.734Z,100862.88
2023-02-03T04:30:21.191Z,100859.84
2023-02-03T04:33:23.319Z,100856.78
2023-02-03T04:36:25.813Z,100860.94
2023-02-03T04:39:27.961Z,100857.19
2023-02-03T04:42:30.372Z,100864.56
2023-02-03T04:45:32.487Z,100876.34
2023-02-03T04:48:35.106Z,100875.13
2023-02-03T04:51:37.283Z,100861.31
2023-02-03T04:54:39.716Z,100870.87
2023-02-03T04:57:41.834Z,100857.75
2023-02-03T05:00:44.291Z,100864.19
2023-02-03T05:03:46.423Z,100861.03
2023-02-03T05:06:49.132Z,100852.41
2023-02-03T05:09:51.355Z,100848.94
2023-02-03T05:12:53.763Z,100853.53
2023-02-03T05:15:55.858Z,100854.00
2023-02-03T05:18:58.298Z,100867.56
2023-02-03T05:22:00.431Z,100853.47
2023-02-03T05:25:04.116Z,100855.44
2023-02-03T05:28:06.344Z,100863.44
2023-02-03T05:31:08.918Z,100872.94
2023-02-03T05:34:11.132Z,100881.09
2023-02-03T05:37:13.587Z,100877.16
2023-02-03T05:40:34.480Z,100871.44
2023-02-03T05:43:37.692Z,100876.44
2023-02-03T05:46:39.834Z,100873.00
2023-02-03T05:49:42.259Z,100880.97
2023-02-03T05:52:44.373Z,100869.12
2023-02-03T05:55:46.798Z,100868.53
2023-02-03T05:58:51.365Z,100872.16
2023-02-03T06:01:53.771Z,100882.09
2023-02-03T06:04:56.143Z,100872.75
2023-02-03T06:07:58.888Z,100858.41
2023-02-03T06:11:01.740Z,100850.56
2023-02-03T06:14:04.402Z,100856.44
2023-02-03T06:17:06.780Z,100847.66
2023-02-03T06:20:09.976Z,100854.59
2023-02-03T06:23:12.572Z,100849.94
2023-02-03T06:26:14.663Z,100855.50
2023-02-03T06:29:17.112Z,100869.91
2023-02-03T06:32:19.373Z,100862.78
2023-02-03T06:35:21.949Z,100863.06
2023-02-03T06:38:24.149Z,100865.81
2023-02-03T06:41:30.390Z,100870.34
2023-02-03T06:44:32.551Z,100875.47
2023-02-03T06:47:35.747Z,100877.56
2023-02-03T06:50:37.855Z,100876.97
2023-02-03T06:53:41.507Z,100883.50
2023-02-03T06:56:44.034Z,100871.97
2023-02-03T06:59:46.461Z,100877.87
2023-02-03T07:02:56.539Z,100880.59
2023-02-03T07:05:59.012Z,100878.59
2023-02-03T07:09:03.401Z,100878.72
2023-02-03T07:12:07.122Z,100873.72
2023-02-03T07:15:10.050Z,100877.63
2023-02-03T07:18:14.988Z,100877.22
2023-02-03T07:21:20.080Z,100878.03
2023-02-03T07:24:22.511Z,100880.00
2023-02-03T07:27:24.656Z,100866.25
2023-02-03T07:30:27.544Z,100870.91
2023-02-03T07:33:30.312Z,100877.69
2023-02-03T07:36:33.410Z,100880.25
2023-02-03T07:39:35.626Z,100888.78
2023-02-03T07:42:48.865Z,100891.03
2023-02-03T07:45:51.093Z,100890.53
2023-02-03T07:48:53.636Z,100892.34
2023-02-03T07:51:56.563Z,100890.81
2023-02-03T07:54:58.990Z,100899.59
2023-02-03T07:58:03.220Z,100907.59
2023-02-03T08:01:16.611Z,100898.47
2023-02-03T08:04:19.310Z,100914.72
2023-02-03T08:07:21.428Z,100917.19
2023-02-03T08:10:23.971Z,100912.31
2023-02-03T08:13:26.386Z,100902.53
2023-02-03T08:16:29.216Z,100895.56
2023-02-03T08:19:31.502Z,100911.16
2023-02-03T08:22:33.902Z,100909.16
2023-02-03T08:25:36.264Z,100902.06
2023-02-03T08:28:38.666Z,100903.12
2023-02-03T08:31:42.650Z,100900.25
2023-02-03T08:34:45.748Z,100902.06
2023-02-03T08:37:47.848Z,100904.94
2023-02-03T08:40:50.377Z,100904.63
2023-02-03T08:43:54.086Z,100911.00
2023-02-03T08:46:56.500Z,100903.75
2023-02-03T08:49:58.749Z,100914.91
2023-02-03T08:53:01.192Z,100915.37
2023-02-03T08:56:11.660Z,100921.72
2023-02-03T08:59:15.173Z,100920.50
2023-02-03T09:02:19.700Z,100923.22
2023-02-03T09:05:22.376Z,100922.31
2023-02-03T09:08:24.572Z,100928.97
2023-02-03T09:11:27.005Z,100917.19
2023-02-03T09:14:29.843Z,100920.66
2023-02-03T09:17:32.264Z,100919.31
2023-02-03T09:20:34.465Z,100927.47
2023-02-03T09:23:37.417Z,100928.81
2023-02-03T09:26:39.606Z,100919.31
2023-02-03T09:29:42.189Z,100923.50
2023-02-03T09:32:47.235Z,100926.62
2023-02-03T09:35:53.639Z,100911.94
2023-02-03T09:38:57.817Z,100908.56
2023-02-03T09:42:09.106Z,100907.78
2023-02-03T09:45:27.257Z,100898.75
2023-02-03T09:48:36.870Z,100897.69
2023-02-03T09:51:43.554Z,100887.00
2023-02-03T09:54:58.685Z,100878.75
2023-02-03T09:58:13.543Z,100871.97
2023-02-03T10:01:20.134Z,100862.47
2023-02-03T10:04:34.561Z,100851.00
2023-02-03T10:07:59.302Z,100846.75
2023-02-03T10:11:14.176Z,100830.16
2023-02-03T10:14:34.914Z,100826.66
2023-02-03T10:17:41.206Z,100809.87
2023-02-03T10:20:50.209Z,100804.28
2023-02-03T10:23:55.078Z,100803.53
2023-02-03T10:26:57.444Z,100792.97
2023-02-03T10:30:18.340Z,100785.09
2023-02-03T10:33:20.515Z,100771.50
2023-02-03T10:36:28.511Z,100773.94
2023-02-03T10:39:44.877Z,100768.66
2023-02-03T10:43:07.660Z,100763.09
2023-02-03T10:46:09.896Z,100755.69
2023-02-03T10:49:14.862Z,100747.97
2023-02-03T10:52:26.899Z,100745.09
2023-02-03T10:55:31.618Z,100745.56
2023-02-03T10:58:34.697Z,100733.94
2023-02-03T11:01:43.828Z,100724.72
2023-02-03T11:04:46.021Z,100708.84
2023-02-03T11:07:48.868Z,100708.41
2023-02-03T11:11:02.809Z,100703.88
2023-02-03T11:14:05.290Z,100706.28
2023-02-03T11:17:09.703Z,100675.16
2023-02-03T11:20:17.343Z,100669.59
2023-02-03T11:23:23.319Z,100683.16
2023-02-03T11:26:31.098Z,100671.25
2023-02-03T11:29:41.930Z,100650.09
2023-02-03T11:32:47.875Z,100647.88
2023-02-03T11:35:58.192Z,100661.91
2023-02-03T11:39:21.652Z,100653.78
2023-02-03T11:42:25.235Z,100642.31
2023-02-03T11:45:41.957Z,100636.13
2023-02-03T11:49:09.370Z,100625.28
2023-02-03T11:52:23.731Z,100609.72
2023-02-03T11:55:34.962Z,100604.88
2023-02-03T11:58:44.729Z,100602.34
2023-02-03T12:02:09.652Z,100587.09
2023-02-03T12:05:17.824Z,100576.53
2023-02-03T12:09:00.712Z,100565.50
2023-02-03T12:12:37.172Z,100564.94
2023-02-03T12:15:50.079Z,100547.25
2023-02-03T12:19:19.045Z,100537.38
2023-02-03T12:22:50.969Z,100532.72
2023-02-03T12:26:05.609Z,100522.75
2023-02-03T12:29:15.911Z,100514.16
2023-02-03T12:32:40.212Z,100505.84
2023-02-03T12:35:52.599Z,100487.09
2023-02-03T12:39:03.865Z,100467.78
2023-02-03T12:42:21.626Z,100452.06
2023-02-03T12:45:29.899Z,100451.59
2023-02-03T12:48:49.543Z,100441.50
2023-02-03T12:52:25.186Z,100444.50
2023-02-03T12:55:50.519Z,100431.25
2023-02-03T12:59:05.831Z,100411.06
2023-02-03T13:02:39.087Z,100411.84
2023-02-03T13:06:20.027Z,100405.03
2023-02-03T13:09:39.444Z,100383.25
2023-02-03T13:12:47.335Z,100381.44
2023-02-03T13:15:52.619Z,100372.13
2023-02-03T13:19:02.439Z,100366.63
2023-02-03T13:22:11.593Z,100367.78
2023-02-03T13:26:00.643Z,100353.72
2023-02-03T13:29:05.704Z,100345.28
2023-02-03T13:32:20.396Z,100337.88
2023-02-03T13:35:35.244Z,100330.88
2023-02-03T13:39:11.270Z,100318.91
2023-02-03T13:42:16.592Z,100311.94
2023-02-03T13:45:33.026Z,100307.09
2023-02-03T13:48:35.590Z,100301.00
2023-02-03T13:51:46.074Z,100302.25
2023-02-03T13:54:48.260Z,100299.13
2023-02-03T13:57:51.774Z,100283.59
2023-02-03T14:00:54.369Z,100276.72
2023-02-03T14:03:58.383Z,100281.44
2023-02-03T14:07:03.114Z,100266.53
2023-02-03T14:10:15.203Z,100264.84
2023-02-03T14:13:21.440Z,100268.75
2023-02-03T14:16:25.850Z,100252.50
2023-02-03T14:19:27.960Z,100259.16
2023-02-03T14:22:31.553Z,100248.13
2023-02-03T14:25:47.005Z,100248.03
2023-02-03T14:28:52.751Z,100233.37
2023-02-03T14:32:00.580Z,100233.66
2023-02-03T14:35:19.289Z,100233.25
2023-02-03T14:38:21.504Z,100234.53
2023-02-03T14:42:02.004Z,100230.03
2023-02-03T14:45:22.352Z,100214.56
2023-02-03T14:48:52.876Z,100213.28
2023-02-03T14:52:14.164Z,100207.81
2023-02-03T14:55:37.621Z,100195.53
2023-02-03T14:58:50.640Z,100203.47
2023-02-03T15:02:02.103Z,100193.94
2023-02-03T15:05:13.359Z,100203.34
2023-02-03T15:08:33.328Z,100194.88
2023-02-03T15:11:44.751Z,100184.84
2023-02-03T15:14:47.339Z,100176.50
2023-02-03T15:17:51.687Z,100173.81
2023-02-03T15:20:55.784Z,100160.56
2023-02-03T15:23:58.047Z,100159.91
2023-02-03T15:27:00.447Z,100159.41
2023-02-03T15:30:18.034Z,100148.50
2023-02-03T15:33:22.599Z,100153.00
2023-02-03T15:36:41.800Z,100135.66
2023-02-03T15:39:47.676Z,100131.56
2023-02-03T15:43:12.291Z,100135.66
2023-02-03T15:46:51.690Z,100135.16
2023-02-03T15:50:07.590Z,100123.84
2023-02-03T15:53:18.224Z,100131.56
2023-02-03T15:56:44.552Z,100124.87
2023-02-03T15:59:55.978Z,100126.91
2023-02-03T16:03:00.423Z,100115.88
